• Join FlightAware (Why Join?)
  • Login
  • US Flag 
12:33PM EDT


 

Airport Tracker/Info


-or-


 

Live Flight TrackerFlight Track Log ✈ MSR663 ✈ 23-May-2013 ✈ HECA / CAI - OEJN / JED

Flight Track Log - Related Links

Times and Time Zones

All times are in EDT time to prevent confusion due to time zone crossing. See the MSR663 flight status page for this flight to view local times or setup timezone preferences in your user account.

Time Position Orientation Groundspeed Altitude Reporting Facility
EDT Latitude Longitude Course Direction KTS MPH feet Rate Location/Type
06:07PM 27.8043 33.6890 139° Southeast  Level Estimated
06:08PM 27.7144 33.7749 140° Southeast  Level Estimated
06:09PM 27.6244 33.8605 140° Southeast  Level Estimated
06:10PM 27.5344 33.9461 140° Southeast  Level Estimated
06:11PM 27.4444 34.0315 140° Southeast  Level Estimated
06:12PM 27.3543 34.1168 140° Southeast  Level Estimated
06:13PM 27.2641 34.2019 140° Southeast  Level Estimated
06:14PM 27.1739 34.2869 140° Southeast  Level Estimated
06:15PM 27.0837 34.3717 140° Southeast  Level Estimated
06:16PM 26.9933 34.4565 140° Southeast  Level Estimated
06:17PM 26.9030 34.5410 140° Southeast  Level Estimated
06:18PM 26.8126 34.6255 140° Southeast  Level Estimated
06:19PM 26.7221 34.7098 140° Southeast  Level Estimated
06:20PM 26.6316 34.7940 140° Southeast  Level Estimated
06:21PM 26.5410 34.8780 140° Southeast  Level Estimated
06:22PM 26.4504 34.9619 140° Southeast  Level Estimated
06:23PM 26.3598 35.0457 140° Southeast  Level Estimated
06:24PM 26.2691 35.1294 140° Southeast  Level Estimated
06:25PM 26.1783 35.2129 140° Southeast  Level Estimated
06:26PM 26.0875 35.2963 140° Southeast  Level Estimated
06:27PM 25.9967 35.3795 141° Southeast  Level Estimated
06:28PM 25.9058 35.4627 141° Southeast  Level Estimated
06:29PM 25.8148 35.5457 141° Southeast  Level Estimated
06:30PM 25.7238 35.6285 141° Southeast  Level Estimated
06:31PM 25.6328 35.7113 141° Southeast  Level Estimated
06:32PM 25.5417 35.7939 141° Southeast  Level Estimated
06:33PM 25.4506 35.8764 141° Southeast  Level Estimated
06:34PM 25.3594 35.9588 141° Southeast  Level Estimated
06:35PM 25.2682 36.0410 141° Southeast  Level Estimated
06:36PM 25.1769 36.1231 141° Southeast  Level Estimated
06:37PM 25.0856 36.2051 141° Southeast  Level Estimated
06:38PM 24.9942 36.2870 141° Southeast  Level Estimated
06:39PM 24.9028 36.3688 141° Southeast  Level Estimated
06:40PM 24.8114 36.4504 141° Southeast  Level Estimated
06:41PM 24.7199 36.5319 141° Southeast  Level Estimated
06:42PM 24.6284 36.6133 141° Southeast  Level Estimated
06:43PM 24.5368 36.6946 141° Southeast  Level Estimated
06:44PM 24.4452 36.7757 141° Southeast  Level Estimated
06:45PM 24.3535 36.8568 141° Southeast  Level Estimated
06:46PM 24.2618 36.9377 141° Southeast  Level Estimated
06:47PM 24.1700 37.0185 141° Southeast  Level Estimated
06:48PM 24.0783 37.0992 141° Southeast  Level Estimated
06:49PM 23.9864 37.1797 141° Southeast  Level Estimated
06:50PM 23.8945 37.2602 141° Southeast  Level Estimated
06:51PM 23.8026 37.3405 141° Southeast  Level Estimated
06:52PM 23.7106 37.4208 141° Southeast  Level Estimated
06:53PM 23.6187 37.5009 141° Southeast  Level Estimated
06:54PM 23.5266 37.5809 141° Southeast  Level Estimated
06:55PM 23.4345 37.6608 141° Southeast  Level Estimated
06:56PM 23.3424 37.7406 142° Southeast  Level Estimated
06:57PM 23.2502 37.8202 142° Southeast  Level Estimated
06:58PM 23.1580 37.8998 142° Southeast  Level Estimated
06:59PM 23.0658 37.9793 142° Southeast  Level Estimated
07:00PM 22.9735 38.0586 142° Southeast  Level Estimated
07:01PM 22.8812 38.1378 142° Southeast  Level Estimated
07:02PM 22.7888 38.2170 142° Southeast  Level Estimated
07:03PM 22.6964 38.2960 142° Southeast  Level Estimated
07:04PM 22.6040 38.3749 142° Southeast  Level Estimated
07:05PM 22.5115 38.4537 142° Southeast  Level Estimated
07:06PM 22.4190 38.5324 142° Southeast  Level Estimated
07:07PM 22.3264 38.6110 142° Southeast  Level Estimated
07:08PM 22.2338 38.6895 142° Southeast  Level Estimated
07:09PM 22.1412 38.7679 142° Southeast  Level Estimated
07:10PM 22.0485 38.8462 142° Southeast  Level Estimated
07:11PM 21.9558 38.9244 142° Southeast  Level Estimated
07:12PM 21.8631 39.0024 142° Southeast  Level Estimated
07:13PM 21.7703 39.0804 142° Southeast  Level Estimated
07:14PM 21.6796 39.1565 142° Southeast  Level Estimated
07:15PM 21.6796 39.1565 317° Northwest  Level Estimated
07:16PM 21.6796 39.1565 317° Northwest  Level Estimated
07:17PM 21.6796 39.1565 317° Northwest  Level Estimated
07:18PM 21.6796 39.1565 317° Northwest  Level Estimated
07:19PM 21.6796 39.1565 317° Northwest  Level Estimated
07:20PM 21.6796 39.1565 317° Northwest  Level Estimated
07:21PM 21.6796 39.1565 317° Northwest  Level Estimated
07:22PM 21.6796 39.1565 317° Northwest  Level Estimated
07:23PM 21.6796 39.1565 317° Northwest  Level Estimated
07:24PM 21.6796 39.1565 317° Northwest  Level Estimated
07:25PM 21.6796 39.1565 317° Northwest  Level Estimated
07:26PM 21.6796 39.1565 317° Northwest  Level Estimated
07:27PM 21.6796 39.1565 317° Northwest  Level Estimated
07:28PM 21.6796 39.1565 317° Northwest  Level Estimated
07:29PM 21.6796 39.1565 317° Northwest  Level Estimated
07:30PM 21.6796 39.1565 317° Northwest  Level Estimated